sensor_id;sensor_type;location;lat;lon;timestamp;P1;durP1;ratioP1;P2;durP2;ratioP2
21894;SDS011;11112;51.270;7.224;2022-08-04T00:00:58;7.20;;;1.70;;
21894;SDS011;11112;51.270;7.224;2022-08-04T00:03:32;5.80;;;1.85;;
21894;SDS011;11112;51.270;7.224;2022-08-04T00:06:08;7.95;;;1.63;;
21894;SDS011;11112;51.270;7.224;2022-08-04T00:08:43;8.68;;;1.80;;
21894;SDS011;11112;51.270;7.224;2022-08-04T00:11:17;4.72;;;1.30;;
21894;SDS011;11112;51.270;7.224;2022-08-04T00:13:49;10.15;;;1.40;;
21894;SDS011;11112;51.270;7.224;2022-08-04T00:16:20;9.10;;;1.77;;
21894;SDS011;11112;51.270;7.224;2022-08-04T00:18:52;6.70;;;1.50;;
21894;SDS011;11112;51.270;7.224;2022-08-04T00:21:24;6.15;;;1.70;;
21894;SDS011;11112;51.270;7.224;2022-08-04T00:23:53;9.57;;;1.67;;
21894;SDS011;11112;51.270;7.224;2022-08-04T00:26:22;7.75;;;1.90;;
21894;SDS011;11112;51.270;7.224;2022-08-04T00:28:50;8.52;;;1.80;;
21894;SDS011;11112;51.270;7.224;2022-08-04T00:31:18;10.70;;;1.60;;
21894;SDS011;11112;51.270;7.224;2022-08-04T00:33:45;5.95;;;1.90;;
21894;SDS011;11112;51.270;7.224;2022-08-04T00:36:15;7.93;;;1.90;;
21894;SDS011;11112;51.270;7.224;2022-08-04T00:38:43;7.15;;;1.88;;
21894;SDS011;11112;51.270;7.224;2022-08-04T00:41:14;7.32;;;1.90;;
21894;SDS011;11112;51.270;7.224;2022-08-04T00:43:56;8.77;;;1.80;;
21894;SDS011;11112;51.270;7.224;2022-08-04T00:46:48;9.27;;;1.60;;
21894;SDS011;11112;51.270;7.224;2022-08-04T00:49:32;8.73;;;1.50;;
21894;SDS011;11112;51.270;7.224;2022-08-04T00:58:45;5.65;;;1.60;;
21894;SDS011;11112;51.270;7.224;2022-08-04T01:01:38;7.68;;;1.42;;
21894;SDS011;11112;51.270;7.224;2022-08-04T01:04:19;6.85;;;1.60;;
21894;SDS011;11112;51.270;7.224;2022-08-04T01:07:02;6.65;;;1.52;;
21894;SDS011;11112;51.270;7.224;2022-08-04T01:09:50;3.80;;;1.48;;
21894;SDS011;11112;51.270;7.224;2022-08-04T01:12:42;6.15;;;1.50;;
21894;SDS011;11112;51.270;7.224;2022-08-04T01:15:24;5.72;;;1.45;;
21894;SDS011;11112;51.270;7.224;2022-08-04T01:18:03;7.18;;;1.40;;
21894;SDS011;11112;51.270;7.224;2022-08-04T01:20:32;10.60;;;1.80;;
21894;SDS011;11112;51.270;7.224;2022-08-04T01:26:17;8.45;;;1.60;;
21894;SDS011;11112;51.270;7.224;2022-08-04T01:29:09;8.48;;;1.50;;
21894;SDS011;11112;51.270;7.224;2022-08-04T01:31:41;8.57;;;1.60;;
21894;SDS011;11112;51.270;7.224;2022-08-04T01:34:28;8.93;;;1.73;;
21894;SDS011;11112;51.270;7.224;2022-08-04T01:37:03;6.90;;;1.42;;
21894;SDS011;11112;51.270;7.224;2022-08-04T01:39:42;7.57;;;1.50;;
21894;SDS011;11112;51.270;7.224;2022-08-04T01:42:17;11.27;;;1.90;;
21894;SDS011;11112;51.270;7.224;2022-08-04T01:44:49;8.90;;;1.83;;
21894;SDS011;11112;51.270;7.224;2022-08-04T01:47:19;10.73;;;1.85;;
21894;SDS011;11112;51.270;7.224;2022-08-04T01:49:48;8.25;;;1.70;;
21894;SDS011;11112;51.270;7.224;2022-08-04T01:52:17;4.80;;;1.50;;
21894;SDS011;11112;51.270;7.224;2022-08-04T01:54:46;8.73;;;1.63;;
21894;SDS011;11112;51.270;7.224;2022-08-04T01:57:15;8.18;;;1.52;;
21894;SDS011;11112;51.270;7.224;2022-08-04T01:59:44;8.02;;;1.63;;
21894;SDS011;11112;51.270;7.224;2022-08-04T02:02:15;10.50;;;1.90;;
21894;SDS011;11112;51.270;7.224;2022-08-04T02:04:42;8.18;;;1.52;;
21894;SDS011;11112;51.270;7.224;2022-08-04T02:07:13;6.90;;;1.50;;
21894;SDS011;11112;51.270;7.224;2022-08-04T02:09:58;10.13;;;1.80;;
21894;SDS011;11112;51.270;7.224;2022-08-04T02:12:47;8.25;;;1.70;;
21894;SDS011;11112;51.270;7.224;2022-08-04T02:15:25;10.23;;;1.45;;
21894;SDS011;11112;51.270;7.224;2022-08-04T02:18:03;7.75;;;1.38;;
21894;SDS011;11112;51.270;7.224;2022-08-04T02:20:38;9.77;;;1.40;;
21894;SDS011;11112;51.270;7.224;2022-08-04T02:23:13;10.27;;;1.60;;
21894;SDS011;11112;51.270;7.224;2022-08-04T02:25:45;8.40;;;1.60;;
21894;SDS011;11112;51.270;7.224;2022-08-04T02:28:22;8.95;;;1.90;;
21894;SDS011;11112;51.270;7.224;2022-08-04T02:31:12;8.02;;;1.75;;
21894;SDS011;11112;51.270;7.224;2022-08-04T02:33:50;6.63;;;1.50;;
21894;SDS011;11112;51.270;7.224;2022-08-04T02:36:29;5.85;;;1.40;;
21894;SDS011;11112;51.270;7.224;2022-08-04T02:39:02;8.80;;;1.70;;
21894;SDS011;11112;51.270;7.224;2022-08-04T02:41:31;7.00;;;1.45;;
21894;SDS011;11112;51.270;7.224;2022-08-04T02:44:00;7.28;;;1.58;;
21894;SDS011;11112;51.270;7.224;2022-08-04T02:46:31;5.47;;;1.48;;
21894;SDS011;11112;51.270;7.224;2022-08-04T02:49:02;4.90;;;1.50;;
21894;SDS011;11112;51.270;7.224;2022-08-04T02:51:32;7.50;;;1.45;;
21894;SDS011;11112;51.270;7.224;2022-08-04T02:54:02;7.72;;;1.33;;
21894;SDS011;11112;51.270;7.224;2022-08-04T02:56:32;7.35;;;1.27;;
21894;SDS011;11112;51.270;7.224;2022-08-04T02:59:02;7.43;;;1.63;;
21894;SDS011;11112;51.270;7.224;2022-08-04T03:01:32;8.20;;;1.70;;
21894;SDS011;11112;51.270;7.224;2022-08-04T03:04:16;7.78;;;1.60;;
21894;SDS011;11112;51.270;7.224;2022-08-04T03:16:36;9.57;;;1.60;;
21894;SDS011;11112;51.270;7.224;2022-08-04T03:19:41;7.45;;;1.85;;
21894;SDS011;11112;51.270;7.224;2022-08-04T03:22:47;9.00;;;2.00;;
21894;SDS011;11112;51.270;7.224;2022-08-04T03:26:02;6.68;;;1.60;;
21894;SDS011;11112;51.270;7.224;2022-08-04T03:29:25;6.05;;;1.70;;
21894;SDS011;11112;51.270;7.224;2022-08-04T03:36:12;8.30;;;1.58;;
21894;SDS011;11112;51.270;7.224;2022-08-04T03:42:57;8.27;;;1.90;;
21894;SDS011;11112;51.270;7.224;2022-08-04T03:46:02;6.07;;;1.63;;
21894;SDS011;11112;51.270;7.224;2022-08-04T03:49:34;6.22;;;1.70;;
21894;SDS011;11112;51.270;7.224;2022-08-04T03:52:35;7.32;;;2.20;;
21894;SDS011;11112;51.270;7.224;2022-08-04T03:55:44;8.98;;;1.80;;
21894;SDS011;11112;51.270;7.224;2022-08-04T03:58:48;6.03;;;2.00;;
21894;SDS011;11112;51.270;7.224;2022-08-04T04:01:51;6.28;;;1.80;;
21894;SDS011;11112;51.270;7.224;2022-08-04T04:04:50;6.03;;;1.85;;
21894;SDS011;11112;51.270;7.224;2022-08-04T04:07:39;6.25;;;2.17;;
21894;SDS011;11112;51.270;7.224;2022-08-04T04:10:45;7.25;;;1.88;;
21894;SDS011;11112;51.270;7.224;2022-08-04T04:14:04;6.88;;;2.00;;
21894;SDS011;11112;51.270;7.224;2022-08-04T04:16:55;4.32;;;1.90;;
21894;SDS011;11112;51.270;7.224;2022-08-04T04:19:38;8.20;;;1.90;;
21894;SDS011;11112;51.270;7.224;2022-08-04T04:22:48;7.97;;;2.20;;
21894;SDS011;11112;51.270;7.224;2022-08-04T04:25:29;4.35;;;1.70;;
21894;SDS011;11112;51.270;7.224;2022-08-04T04:28:11;6.72;;;2.05;;
21894;SDS011;11112;51.270;7.224;2022-08-04T04:31:32;4.32;;;2.00;;
21894;SDS011;11112;51.270;7.224;2022-08-04T04:34:15;6.30;;;2.20;;
21894;SDS011;11112;51.270;7.224;2022-08-04T04:37:00;6.32;;;1.90;;
21894;SDS011;11112;51.270;7.224;2022-08-04T04:39:50;7.30;;;2.30;;
21894;SDS011;11112;51.270;7.224;2022-08-04T04:42:43;9.95;;;2.45;;
21894;SDS011;11112;51.270;7.224;2022-08-04T04:45:39;4.45;;;2.13;;
21894;SDS011;11112;51.270;7.224;2022-08-04T04:48:19;8.85;;;2.20;;
21894;SDS011;11112;51.270;7.224;2022-08-04T04:51:04;9.10;;;2.25;;
21894;SDS011;11112;51.270;7.224;2022-08-04T04:53:41;8.57;;;2.63;;
21894;SDS011;11112;51.270;7.224;2022-08-04T04:56:23;9.00;;;3.00;;
21894;SDS011;11112;51.270;7.224;2022-08-04T04:58:54;6.75;;;3.13;;
21894;SDS011;11112;51.270;7.224;2022-08-04T05:04:41;8.13;;;3.28;;
21894;SDS011;11112;51.270;7.224;2022-08-04T05:07:37;8.48;;;3.10;;
21894;SDS011;11112;51.270;7.224;2022-08-04T05:10:26;5.57;;;2.55;;
21894;SDS011;11112;51.270;7.224;2022-08-04T05:13:21;5.68;;;3.42;;
21894;SDS011;11112;51.270;7.224;2022-08-04T05:16:08;6.97;;;3.67;;
21894;SDS011;11112;51.270;7.224;2022-08-04T05:18:43;9.63;;;3.92;;
21894;SDS011;11112;51.270;7.224;2022-08-04T05:21:24;8.98;;;3.00;;
21894;SDS011;11112;51.270;7.224;2022-08-04T05:24:01;8.63;;;3.13;;
21894;SDS011;11112;51.270;7.224;2022-08-04T05:26:32;8.27;;;3.13;;
21894;SDS011;11112;51.270;7.224;2022-08-04T05:29:08;6.03;;;2.72;;
21894;SDS011;11112;51.270;7.224;2022-08-04T05:31:40;8.77;;;3.28;;
21894;SDS011;11112;51.270;7.224;2022-08-04T05:34:13;5.72;;;3.22;;
21894;SDS011;11112;51.270;7.224;2022-08-04T05:36:46;5.40;;;2.50;;
21894;SDS011;11112;51.270;7.224;2022-08-04T05:39:24;5.88;;;2.40;;
21894;SDS011;11112;51.270;7.224;2022-08-04T05:41:54;9.00;;;2.42;;
21894;SDS011;11112;51.270;7.224;2022-08-04T05:44:24;7.60;;;2.20;;
21894;SDS011;11112;51.270;7.224;2022-08-04T05:46:54;7.43;;;2.15;;
21894;SDS011;11112;51.270;7.224;2022-08-04T05:49:23;4.70;;;1.90;;
21894;SDS011;11112;51.270;7.224;2022-08-04T05:51:54;5.93;;;1.88;;
21894;SDS011;11112;51.270;7.224;2022-08-04T05:54:26;7.15;;;2.00;;
21894;SDS011;11112;51.270;7.224;2022-08-04T05:56:56;3.22;;;1.60;;
21894;SDS011;11112;51.270;7.224;2022-08-04T05:59:26;12.13;;;2.40;;
21894;SDS011;11112;51.270;7.224;2022-08-04T06:01:55;3.88;;;1.85;;
21894;SDS011;11112;51.270;7.224;2022-08-04T06:04:26;3.22;;;1.80;;
21894;SDS011;11112;51.270;7.224;2022-08-04T06:06:58;4.38;;;1.88;;
21894;SDS011;11112;51.270;7.224;2022-08-04T06:09:26;5.47;;;2.13;;
21894;SDS011;11112;51.270;7.224;2022-08-04T06:11:53;4.57;;;2.17;;
21894;SDS011;11112;51.270;7.224;2022-08-04T06:14:26;6.00;;;2.08;;
21894;SDS011;11112;51.270;7.224;2022-08-04T06:16:58;5.53;;;1.90;;
21894;SDS011;11112;51.270;7.224;2022-08-04T06:19:27;5.97;;;1.88;;
21894;SDS011;11112;51.270;7.224;2022-08-04T06:21:57;3.95;;;1.80;;
21894;SDS011;11112;51.270;7.224;2022-08-04T06:24:25;3.88;;;1.80;;
21894;SDS011;11112;51.270;7.224;2022-08-04T06:26:55;5.97;;;2.38;;
21894;SDS011;11112;51.270;7.224;2022-08-04T06:29:25;6.20;;;2.20;;
21894;SDS011;11112;51.270;7.224;2022-08-04T06:32:00;7.85;;;2.20;;
21894;SDS011;11112;51.270;7.224;2022-08-04T06:34:37;5.32;;;1.98;;
21894;SDS011;11112;51.270;7.224;2022-08-04T06:37:07;5.93;;;2.10;;
21894;SDS011;11112;51.270;7.224;2022-08-04T06:39:35;4.75;;;1.98;;
21894;SDS011;11112;51.270;7.224;2022-08-04T06:42:02;3.72;;;1.80;;
21894;SDS011;11112;51.270;7.224;2022-08-04T06:44:32;4.13;;;1.83;;
21894;SDS011;11112;51.270;7.224;2022-08-04T06:47:00;9.85;;;2.20;;
21894;SDS011;11112;51.270;7.224;2022-08-04T06:49:29;8.35;;;2.50;;
21894;SDS011;11112;51.270;7.224;2022-08-04T06:51:57;4.50;;;1.98;;
21894;SDS011;11112;51.270;7.224;2022-08-04T06:54:28;3.67;;;2.00;;
21894;SDS011;11112;51.270;7.224;2022-08-04T06:56:57;3.88;;;1.92;;
21894;SDS011;11112;51.270;7.224;2022-08-04T06:59:26;3.83;;;2.00;;
21894;SDS011;11112;51.270;7.224;2022-08-04T07:01:56;5.70;;;2.15;;
21894;SDS011;11112;51.270;7.224;2022-08-04T07:04:24;4.28;;;2.20;;
21894;SDS011;11112;51.270;7.224;2022-08-04T07:06:52;4.97;;;1.77;;
21894;SDS011;11112;51.270;7.224;2022-08-04T07:09:19;4.40;;;1.90;;
21894;SDS011;11112;51.270;7.224;2022-08-04T07:11:47;3.17;;;1.70;;
21894;SDS011;11112;51.270;7.224;2022-08-04T07:14:15;3.75;;;1.65;;
21894;SDS011;11112;51.270;7.224;2022-08-04T07:16:44;4.28;;;1.73;;
21894;SDS011;11112;51.270;7.224;2022-08-04T07:19:15;3.90;;;1.75;;
21894;SDS011;11112;51.270;7.224;2022-08-04T07:21:42;4.45;;;1.55;;
21894;SDS011;11112;51.270;7.224;2022-08-04T07:24:10;3.35;;;1.98;;
21894;SDS011;11112;51.270;7.224;2022-08-04T07:26:38;6.00;;;4.00;;
21894;SDS011;11112;51.270;7.224;2022-08-04T07:29:05;4.65;;;2.40;;
21894;SDS011;11112;51.270;7.224;2022-08-04T07:31:32;4.05;;;1.88;;
21894;SDS011;11112;51.270;7.224;2022-08-04T07:34:00;2.88;;;1.70;;
21894;SDS011;11112;51.270;7.224;2022-08-04T07:36:29;8.82;;;1.70;;
21894;SDS011;11112;51.270;7.224;2022-08-04T07:38:57;4.70;;;1.95;;
21894;SDS011;11112;51.270;7.224;2022-08-04T07:41:25;3.65;;;1.70;;
21894;SDS011;11112;51.270;7.224;2022-08-04T07:43:52;2.95;;;1.60;;
21894;SDS011;11112;51.270;7.224;2022-08-04T07:46:20;4.18;;;1.65;;
21894;SDS011;11112;51.270;7.224;2022-08-04T07:48:47;3.08;;;1.63;;
21894;SDS011;11112;51.270;7.224;2022-08-04T07:51:16;3.08;;;1.30;;
21894;SDS011;11112;51.270;7.224;2022-08-04T07:53:45;5.28;;;1.60;;
21894;SDS011;11112;51.270;7.224;2022-08-04T07:56:14;3.75;;;1.55;;
21894;SDS011;11112;51.270;7.224;2022-08-04T07:58:41;3.10;;;1.20;;
21894;SDS011;11112;51.270;7.224;2022-08-04T08:01:09;3.00;;;1.60;;
21894;SDS011;11112;51.270;7.224;2022-08-04T08:03:37;5.28;;;1.60;;
21894;SDS011;11112;51.270;7.224;2022-08-04T08:06:06;5.82;;;1.50;;
21894;SDS011;11112;51.270;7.224;2022-08-04T08:08:36;3.33;;;1.67;;
21894;SDS011;11112;51.270;7.224;2022-08-04T08:11:05;4.05;;;1.70;;
21894;SDS011;11112;51.270;7.224;2022-08-04T08:13:33;4.53;;;1.40;;
21894;SDS011;11112;51.270;7.224;2022-08-04T08:16:02;3.40;;;1.40;;
21894;SDS011;11112;51.270;7.224;2022-08-04T08:18:31;4.07;;;1.40;;
21894;SDS011;11112;51.270;7.224;2022-08-04T08:20:58;4.30;;;1.45;;
21894;SDS011;11112;51.270;7.224;2022-08-04T08:23:25;5.53;;;1.60;;
21894;SDS011;11112;51.270;7.224;2022-08-04T08:25:54;3.35;;;1.30;;
21894;SDS011;11112;51.270;7.224;2022-08-04T08:28:24;4.65;;;1.38;;
21894;SDS011;11112;51.270;7.224;2022-08-04T08:30:51;3.80;;;1.50;;
21894;SDS011;11112;51.270;7.224;2022-08-04T08:33:19;3.75;;;1.40;;
21894;SDS011;11112;51.270;7.224;2022-08-04T08:35:52;3.33;;;1.30;;
21894;SDS011;11112;51.270;7.224;2022-08-04T08:38:37;2.28;;;1.38;;
21894;SDS011;11112;51.270;7.224;2022-08-04T08:41:18;4.30;;;1.50;;
21894;SDS011;11112;51.270;7.224;2022-08-04T08:44:31;2.92;;;1.38;;
21894;SDS011;11112;51.270;7.224;2022-08-04T08:47:39;2.83;;;1.38;;
21894;SDS011;11112;51.270;7.224;2022-08-04T08:50:40;6.15;;;1.38;;
21894;SDS011;11112;51.270;7.224;2022-08-04T08:56:57;3.70;;;1.25;;
21894;SDS011;11112;51.270;7.224;2022-08-04T08:59:42;3.03;;;1.17;;
21894;SDS011;11112;51.270;7.224;2022-08-04T09:02:25;4.35;;;1.50;;
21894;SDS011;11112;51.270;7.224;2022-08-04T09:05:54;3.45;;;1.40;;
21894;SDS011;11112;51.270;7.224;2022-08-04T09:08:58;2.90;;;1.42;;
21894;SDS011;11112;51.270;7.224;2022-08-04T09:11:45;6.25;;;1.30;;
21894;SDS011;11112;51.270;7.224;2022-08-04T09:14:23;3.40;;;1.40;;
21894;SDS011;11112;51.270;7.224;2022-08-04T09:17:01;4.68;;;1.30;;
21894;SDS011;11112;51.270;7.224;2022-08-04T09:19:33;4.10;;;1.20;;
21894;SDS011;11112;51.270;7.224;2022-08-04T09:22:08;3.50;;;1.15;;
21894;SDS011;11112;51.270;7.224;2022-08-04T09:24:46;6.35;;;1.90;;
21894;SDS011;11112;51.270;7.224;2022-08-04T09:27:20;5.35;;;1.40;;
21894;SDS011;11112;51.270;7.224;2022-08-04T09:30:00;5.30;;;1.40;;
21894;SDS011;11112;51.270;7.224;2022-08-04T09:32:33;3.13;;;1.50;;
21894;SDS011;11112;51.270;7.224;2022-08-04T09:35:15;6.95;;;1.20;;
21894;SDS011;11112;51.270;7.224;2022-08-04T09:37:53;3.35;;;1.20;;
21894;SDS011;11112;51.270;7.224;2022-08-04T09:40:31;3.55;;;1.33;;
21894;SDS011;11112;51.270;7.224;2022-08-04T09:43:08;5.43;;;1.35;;
21894;SDS011;11112;51.270;7.224;2022-08-04T09:45:47;5.68;;;1.48;;
21894;SDS011;11112;51.270;7.224;2022-08-04T09:48:27;4.70;;;1.30;;
21894;SDS011;11112;51.270;7.224;2022-08-04T09:51:05;3.92;;;1.40;;
21894;SDS011;11112;51.270;7.224;2022-08-04T09:53:45;4.75;;;1.40;;
21894;SDS011;11112;51.270;7.224;2022-08-04T09:56:22;3.72;;;1.42;;
21894;SDS011;11112;51.270;7.224;2022-08-04T09:58:58;2.63;;;1.33;;
21894;SDS011;11112;51.270;7.224;2022-08-04T10:01:37;4.15;;;1.40;;
21894;SDS011;11112;51.270;7.224;2022-08-04T10:04:07;4.00;;;1.50;;
21894;SDS011;11112;51.270;7.224;2022-08-04T10:06:45;5.07;;;1.50;;
21894;SDS011;11112;51.270;7.224;2022-08-04T10:09:42;4.38;;;1.45;;
21894;SDS011;11112;51.270;7.224;2022-08-04T10:12:30;3.67;;;0.90;;
21894;SDS011;11112;51.270;7.224;2022-08-04T10:15:09;4.13;;;1.15;;
21894;SDS011;11112;51.270;7.224;2022-08-04T10:17:46;4.28;;;1.30;;
21894;SDS011;11112;51.270;7.224;2022-08-04T10:20:36;5.30;;;1.10;;
21894;SDS011;11112;51.270;7.224;2022-08-04T10:23:17;4.07;;;1.15;;
21894;SDS011;11112;51.270;7.224;2022-08-04T10:26:01;3.80;;;1.20;;
21894;SDS011;11112;51.270;7.224;2022-08-04T10:28:42;2.92;;;1.10;;
21894;SDS011;11112;51.270;7.224;2022-08-04T10:31:18;3.67;;;1.10;;
21894;SDS011;11112;51.270;7.224;2022-08-04T10:33:53;6.53;;;1.38;;
21894;SDS011;11112;51.270;7.224;2022-08-04T10:36:29;4.35;;;0.95;;
21894;SDS011;11112;51.270;7.224;2022-08-04T10:39:07;3.67;;;1.10;;
21894;SDS011;11112;51.270;7.224;2022-08-04T10:41:51;4.93;;;1.10;;
21894;SDS011;11112;51.270;7.224;2022-08-04T10:44:27;3.13;;;1.10;;
21894;SDS011;11112;51.270;7.224;2022-08-04T10:47:07;6.38;;;1.48;;
21894;SDS011;11112;51.270;7.224;2022-08-04T10:49:42;6.82;;;1.25;;
21894;SDS011;11112;51.270;7.224;2022-08-04T10:52:16;2.92;;;1.10;;
21894;SDS011;11112;51.270;7.224;2022-08-04T10:54:50;6.13;;;1.17;;
21894;SDS011;11112;51.270;7.224;2022-08-04T10:57:25;7.65;;;1.30;;
21894;SDS011;11112;51.270;7.224;2022-08-04T11:00:03;2.28;;;1.02;;
21894;SDS011;11112;51.270;7.224;2022-08-04T11:02:39;6.20;;;1.42;;
21894;SDS011;11112;51.270;7.224;2022-08-04T11:05:14;5.65;;;1.40;;
21894;SDS011;11112;51.270;7.224;2022-08-04T11:07:52;3.20;;;1.48;;
21894;SDS011;11112;51.270;7.224;2022-08-04T11:10:27;6.72;;;1.60;;
21894;SDS011;11112;51.270;7.224;2022-08-04T11:13:00;4.25;;;1.95;;
21894;SDS011;11112;51.270;7.224;2022-08-04T11:15:35;6.95;;;1.60;;
21894;SDS011;11112;51.270;7.224;2022-08-04T11:18:08;6.00;;;1.70;;
21894;SDS011;11112;51.270;7.224;2022-08-04T11:20:41;5.40;;;1.60;;
21894;SDS011;11112;51.270;7.224;2022-08-04T11:23:17;6.13;;;1.85;;
21894;SDS011;11112;51.270;7.224;2022-08-04T11:25:50;4.55;;;1.70;;
21894;SDS011;11112;51.270;7.224;2022-08-04T11:28:25;5.53;;;1.50;;
21894;SDS011;11112;51.270;7.224;2022-08-04T11:31:05;6.00;;;1.77;;
21894;SDS011;11112;51.270;7.224;2022-08-04T11:33:43;8.40;;;1.88;;
21894;SDS011;11112;51.270;7.224;2022-08-04T11:36:19;7.70;;;1.73;;
21894;SDS011;11112;51.270;7.224;2022-08-04T11:38:58;10.93;;;1.90;;
21894;SDS011;11112;51.270;7.224;2022-08-04T11:41:36;11.70;;;2.00;;
21894;SDS011;11112;51.270;7.224;2022-08-04T11:44:17;10.48;;;2.10;;
21894;SDS011;11112;51.270;7.224;2022-08-04T11:46:56;9.07;;;1.60;;
21894;SDS011;11112;51.270;7.224;2022-08-04T11:49:31;12.98;;;1.83;;
21894;SDS011;11112;51.270;7.224;2022-08-04T11:52:02;5.38;;;1.77;;
21894;SDS011;11112;51.270;7.224;2022-08-04T11:54:33;9.52;;;1.63;;
21894;SDS011;11112;51.270;7.224;2022-08-04T11:57:02;9.13;;;1.90;;
21894;SDS011;11112;51.270;7.224;2022-08-04T11:59:31;9.52;;;2.00;;
21894;SDS011;11112;51.270;7.224;2022-08-04T12:02:16;8.52;;;1.80;;
21894;SDS011;11112;51.270;7.224;2022-08-04T12:04:59;6.90;;;1.60;;
21894;SDS011;11112;51.270;7.224;2022-08-04T12:07:33;11.70;;;1.95;;
21894;SDS011;11112;51.270;7.224;2022-08-04T12:10:19;9.55;;;1.55;;
21894;SDS011;11112;51.270;7.224;2022-08-04T12:12:58;5.90;;;1.83;;
21894;SDS011;11112;51.270;7.224;2022-08-04T12:15:35;11.32;;;2.28;;
21894;SDS011;11112;51.270;7.224;2022-08-04T12:18:17;7.20;;;1.70;;
21894;SDS011;11112;51.270;7.224;2022-08-04T12:20:50;6.88;;;1.95;;
21894;SDS011;11112;51.270;7.224;2022-08-04T12:23:25;6.50;;;2.08;;
21894;SDS011;11112;51.270;7.224;2022-08-04T12:26:02;8.05;;;1.73;;
21894;SDS011;11112;51.270;7.224;2022-08-04T12:28:32;10.93;;;2.00;;
21894;SDS011;11112;51.270;7.224;2022-08-04T12:31:04;8.40;;;1.75;;
21894;SDS011;11112;51.270;7.224;2022-08-04T12:33:43;11.95;;;1.80;;
21894;SDS011;11112;51.270;7.224;2022-08-04T12:36:18;9.75;;;1.60;;
21894;SDS011;11112;51.270;7.224;2022-08-04T12:38:53;6.07;;;1.73;;
21894;SDS011;11112;51.270;7.224;2022-08-04T12:41:31;8.73;;;2.10;;
21894;SDS011;11112;51.270;7.224;2022-08-04T12:44:06;8.68;;;1.90;;
21894;SDS011;11112;51.270;7.224;2022-08-04T12:46:38;6.68;;;1.95;;
21894;SDS011;11112;51.270;7.224;2022-08-04T12:49:10;8.23;;;2.03;;
21894;SDS011;11112;51.270;7.224;2022-08-04T12:51:40;7.82;;;1.90;;
21894;SDS011;11112;51.270;7.224;2022-08-04T12:54:10;5.53;;;2.10;;
21894;SDS011;11112;51.270;7.224;2022-08-04T12:56:39;7.97;;;2.50;;
21894;SDS011;11112;51.270;7.224;2022-08-04T12:59:07;10.77;;;2.28;;
21894;SDS011;11112;51.270;7.224;2022-08-04T13:01:37;8.38;;;2.10;;
21894;SDS011;11112;51.270;7.224;2022-08-04T13:04:10;5.30;;;1.77;;
21894;SDS011;11112;51.270;7.224;2022-08-04T13:06:40;7.00;;;1.95;;
21894;SDS011;11112;51.270;7.224;2022-08-04T13:09:10;8.90;;;1.67;;
21894;SDS011;11112;51.270;7.224;2022-08-04T13:11:48;4.80;;;1.70;;
21894;SDS011;11112;51.270;7.224;2022-08-04T13:14:19;6.68;;;1.80;;
21894;SDS011;11112;51.270;7.224;2022-08-04T13:16:47;8.30;;;1.80;;
21894;SDS011;11112;51.270;7.224;2022-08-04T13:19:23;7.72;;;1.83;;
21894;SDS011;11112;51.270;7.224;2022-08-04T13:21:51;6.45;;;1.77;;
21894;SDS011;11112;51.270;7.224;2022-08-04T13:24:19;7.82;;;1.80;;
21894;SDS011;11112;51.270;7.224;2022-08-04T13:26:53;7.63;;;2.40;;
21894;SDS011;11112;51.270;7.224;2022-08-04T13:29:23;5.35;;;1.63;;
21894;SDS011;11112;51.270;7.224;2022-08-04T13:31:58;5.57;;;1.40;;
21894;SDS011;11112;51.270;7.224;2022-08-04T13:34:26;5.28;;;1.73;;
21894;SDS011;11112;51.270;7.224;2022-08-04T13:36:54;6.38;;;1.80;;
21894;SDS011;11112;51.270;7.224;2022-08-04T13:39:22;8.57;;;1.98;;
21894;SDS011;11112;51.270;7.224;2022-08-04T13:41:53;9.88;;;2.10;;
21894;SDS011;11112;51.270;7.224;2022-08-04T13:44:25;8.93;;;2.37;;
21894;SDS011;11112;51.270;7.224;2022-08-04T13:46:56;8.00;;;2.00;;
21894;SDS011;11112;51.270;7.224;2022-08-04T13:49:27;6.40;;;2.03;;
21894;SDS011;11112;51.270;7.224;2022-08-04T13:51:54;6.80;;;1.63;;
21894;SDS011;11112;51.270;7.224;2022-08-04T13:54:26;7.88;;;1.92;;
21894;SDS011;11112;51.270;7.224;2022-08-04T13:57:02;6.65;;;1.77;;
21894;SDS011;11112;51.270;7.224;2022-08-04T13:59:37;7.47;;;1.80;;
21894;SDS011;11112;51.270;7.224;2022-08-04T14:02:06;7.93;;;1.70;;
21894;SDS011;11112;51.270;7.224;2022-08-04T14:04:41;7.30;;;1.77;;
21894;SDS011;11112;51.270;7.224;2022-08-04T14:07:21;8.07;;;1.92;;
21894;SDS011;11112;51.270;7.224;2022-08-04T14:09:51;7.40;;;1.95;;
21894;SDS011;11112;51.270;7.224;2022-08-04T14:12:20;5.95;;;2.60;;
21894;SDS011;11112;51.270;7.224;2022-08-04T14:14:48;12.13;;;5.50;;
21894;SDS011;11112;51.270;7.224;2022-08-04T14:17:22;7.72;;;2.40;;
21894;SDS011;11112;51.270;7.224;2022-08-04T14:22:29;6.85;;;1.50;;
21894;SDS011;11112;51.270;7.224;2022-08-04T14:25:00;5.60;;;1.80;;
21894;SDS011;11112;51.270;7.224;2022-08-04T14:27:41;6.00;;;1.80;;
21894;SDS011;11112;51.270;7.224;2022-08-04T14:32:59;9.45;;;1.98;;
21894;SDS011;11112;51.270;7.224;2022-08-04T14:35:29;7.45;;;1.65;;
21894;SDS011;11112;51.270;7.224;2022-08-04T14:37:58;7.25;;;2.22;;
21894;SDS011;11112;51.270;7.224;2022-08-04T14:40:28;4.82;;;1.85;;
21894;SDS011;11112;51.270;7.224;2022-08-04T14:42:58;6.72;;;1.77;;
21894;SDS011;11112;51.270;7.224;2022-08-04T14:45:27;7.97;;;1.75;;
21894;SDS011;11112;51.270;7.224;2022-08-04T14:47:57;6.78;;;2.60;;
21894;SDS011;11112;51.270;7.224;2022-08-04T14:50:31;10.55;;;2.30;;
21894;SDS011;11112;51.270;7.224;2022-08-04T14:53:05;4.10;;;1.90;;
21894;SDS011;11112;51.270;7.224;2022-08-04T14:55:35;5.18;;;1.60;;
21894;SDS011;11112;51.270;7.224;2022-08-04T14:58:05;9.00;;;1.85;;
21894;SDS011;11112;51.270;7.224;2022-08-04T15:00:33;8.80;;;2.28;;
21894;SDS011;11112;51.270;7.224;2022-08-04T15:03:02;8.80;;;2.00;;
21894;SDS011;11112;51.270;7.224;2022-08-04T15:05:32;7.22;;;2.10;;
21894;SDS011;11112;51.270;7.224;2022-08-04T15:08:00;8.07;;;2.20;;
21894;SDS011;11112;51.270;7.224;2022-08-04T15:10:27;11.77;;;2.20;;
21894;SDS011;11112;51.270;7.224;2022-08-04T15:12:55;6.47;;;2.50;;
21894;SDS011;11112;51.270;7.224;2022-08-04T15:15:23;12.27;;;2.30;;
21894;SDS011;11112;51.270;7.224;2022-08-04T15:17:50;10.32;;;2.38;;
21894;SDS011;11112;51.270;7.224;2022-08-04T15:20:19;10.68;;;2.40;;
21894;SDS011;11112;51.270;7.224;2022-08-04T15:22:47;8.25;;;2.22;;
21894;SDS011;11112;51.270;7.224;2022-08-04T15:25:14;6.00;;;2.20;;
21894;SDS011;11112;51.270;7.224;2022-08-04T15:27:42;7.70;;;2.20;;
21894;SDS011;11112;51.270;7.224;2022-08-04T15:30:15;7.13;;;2.30;;
21894;SDS011;11112;51.270;7.224;2022-08-04T15:32:49;8.43;;;2.30;;
21894;SDS011;11112;51.270;7.224;2022-08-04T15:35:22;8.48;;;2.17;;
21894;SDS011;11112;51.270;7.224;2022-08-04T15:37:52;6.05;;;2.13;;
21894;SDS011;11112;51.270;7.224;2022-08-04T15:40:29;6.68;;;2.33;;
21894;SDS011;11112;51.270;7.224;2022-08-04T15:43:12;10.88;;;2.60;;
21894;SDS011;11112;51.270;7.224;2022-08-04T15:45:51;8.38;;;3.15;;
21894;SDS011;11112;51.270;7.224;2022-08-04T15:48:23;10.27;;;3.55;;
21894;SDS011;11112;51.270;7.224;2022-08-04T15:51:01;8.60;;;2.70;;
21894;SDS011;11112;51.270;7.224;2022-08-04T15:56:48;8.70;;;3.30;;
21894;SDS011;11112;51.270;7.224;2022-08-04T15:59:25;8.27;;;3.58;;
21894;SDS011;11112;51.270;7.224;2022-08-04T16:05:31;11.10;;;3.00;;
21894;SDS011;11112;51.270;7.224;2022-08-04T16:08:13;7.63;;;2.40;;
21894;SDS011;11112;51.270;7.224;2022-08-04T16:10:47;5.63;;;2.40;;
21894;SDS011;11112;51.270;7.224;2022-08-04T16:13:16;6.25;;;2.85;;
21894;SDS011;11112;51.270;7.224;2022-08-04T16:15:51;9.75;;;3.03;;
21894;SDS011;11112;51.270;7.224;2022-08-04T16:18:21;10.10;;;2.67;;
21894;SDS011;11112;51.270;7.224;2022-08-04T16:21:05;7.07;;;2.20;;
21894;SDS011;11112;51.270;7.224;2022-08-04T16:26:44;5.70;;;2.30;;
21894;SDS011;11112;51.270;7.224;2022-08-04T16:29:25;6.53;;;2.53;;